Time;durP1;ratioP1;P1;durP2;ratioP2;P2;SDS_P1;SDS_P2;PMS_P1;PMS_P2;Temp;Humidity;BMP_temperature;BMP_pressure;BME280_temperature;BME280_humidity;BME280_pressure;Samples;Min_cycle;Max_cycle;Signal;HPM_P1;HPM_P2
2022/10/28 00:01:13;;;;;;;5.28;3.17;;;;;;;11.53;85.08;101845.84;1825178;78;20832;-84
2022/10/28 00:03:44;;;;;;;5.95;4.12;;;;;;;11.57;85.05;101850.03;1825336;78;21432;-85
2022/10/28 00:06:14;;;;;;;4.00;3.22;;;;;;;11.57;84.82;101846.56;1825836;78;20923;-84
2022/10/28 00:08:40;;;;;;;4.15;3.37;;;;;;;11.56;84.63;101850.97;1825214;78;21090;-83
2022/10/28 00:11:18;;;;;;;7.53;3.05;;;;;;;11.56;84.81;101847.47;1825235;78;20923;-82
2022/10/28 00:13:45;;;;;;;3.80;2.72;;;;;;;11.59;84.91;101852.61;1825739;78;20873;-84
2022/10/28 00:16:19;;;;;;;6.45;2.77;;;;;;;11.59;84.58;101846.04;1825351;78;20954;-83
2022/10/28 00:18:46;;;;;;;4.83;2.90;;;;;;;11.58;84.54;101850.88;1825133;78;20915;-82
2022/10/28 00:21:16;;;;;;;6.12;2.92;;;;;;;11.58;84.43;101850.88;1824895;78;21772;-84
2022/10/28 00:23:43;;;;;;;4.28;2.67;;;;;;;11.56;84.33;101854.03;1824877;78;20843;-85
2022/10/28 00:26:14;;;;;;;4.97;2.67;;;;;;;11.54;84.47;101845.40;1825680;78;20848;-84
2022/10/28 00:28:47;;;;;;;5.92;2.90;;;;;;;11.54;84.38;101854.13;1722461;81;20995;-84
2022/10/28 00:31:16;;;;;;;5.67;2.50;;;;;;;11.50;84.41;101853.02;1726461;81;20926;-85
2022/10/28 00:33:43;;;;;;;3.87;2.40;;;;;;;11.48;84.47;101851.77;1725464;82;21261;-85
2022/10/28 00:36:17;;;;;;;2.92;2.25;;;;;;;11.48;84.66;101853.55;1746877;81;20892;-85
2022/10/28 00:38:48;;;;;;;3.08;2.70;;;;;;;11.46;84.61;101854.91;1744757;82;20890;-84
2022/10/28 00:41:30;;;;;;;4.08;2.55;;;;;;;11.44;84.72;101852.81;1760457;81;20944;-85
2022/10/28 00:44:00;;;;;;;4.85;2.50;;;;;;;11.41;84.56;101851.18;1759251;80;20923;-83
2022/10/28 00:46:41;;;;;;;4.53;2.55;;;;;;;11.40;84.71;101856.05;1761720;80;21142;-84
2022/10/28 00:49:26;;;;;;;2.87;2.35;;;;;;;11.40;84.75;101854.73;1763021;80;20854;-84
2022/10/28 00:51:59;;;;;;;3.85;2.62;;;;;;;11.38;84.86;101854.38;1762467;80;21016;-84
2022/10/28 00:54:25;;;;;;;4.75;2.40;;;;;;;11.39;85.00;101850.39;1761255;80;20900;-85
2022/10/28 00:56:54;;;;;;;5.95;2.45;;;;;;;11.40;84.93;101853.42;1762792;80;21009;-84
2022/10/28 00:59:32;;;;;;;5.65;2.72;;;;;;;11.39;84.84;101853.02;1763209;80;21270;-84
2022/10/28 01:01:58;;;;;;;4.87;2.40;;;;;;;11.35;84.89;101854.06;1762875;80;20990;-84
2022/10/28 01:04:26;;;;;;;6.65;2.92;;;;;;;11.37;85.17;101852.23;1763075;80;20975;-85
2022/10/28 01:06:52;;;;;;;3.77;2.83;;;;;;;11.41;85.05;101855.12;1763172;80;20912;-84
2022/10/28 01:09:20;;;;;;;3.12;2.40;;;;;;;11.41;84.82;101856.43;1762784;80;21046;-84
2022/10/28 01:12:16;;;;;;;4.65;2.40;;;;;;;11.38;84.91;101852.64;1763746;80;21074;-83
2022/10/28 01:15:20;;;;;;;5.12;2.15;;;;;;;11.38;84.95;101859.64;1762952;80;20896;-84
2022/10/28 01:18:31;;;;;;;8.53;2.50;;;;;;;11.38;85.12;101859.20;1749958;80;21368;-83
2022/10/28 01:21:18;;;;;;;4.72;2.95;;;;;;;11.40;85.13;101849.48;1760454;81;20904;-83
2022/10/28 01:24:15;;;;;;;3.12;2.08;;;;;;;11.40;85.12;101855.17;1761627;81;20844;-84
2022/10/28 01:27:17;;;;;;;3.98;2.00;;;;;;;11.37;84.92;101855.31;1760391;81;22113;-85
2022/10/28 01:30:08;;;;;;;3.30;2.47;;;;;;;11.34;85.14;101851.06;1760328;81;21473;-84
2022/10/28 01:33:02;;;;;;;6.25;2.55;;;;;;;11.32;85.20;101854.67;1760239;81;20923;-84
2022/10/28 01:35:49;;;;;;;3.27;2.50;;;;;;;11.31;85.51;101852.95;1760200;81;20943;-83
2022/10/28 01:38:27;;;;;;;4.65;2.40;;;;;;;11.32;85.44;101857.30;1759663;81;20880;-83
2022/10/28 01:41:15;;;;;;;2.33;2.12;;;;;;;11.30;85.48;101852.58;1732139;80;21438;-85
2022/10/28 01:43:58;;;;;;;5.05;2.10;;;;;;;11.27;85.43;101857.50;1760393;81;20927;-85
2022/10/28 01:46:47;;;;;;;3.70;2.40;;;;;;;11.26;85.68;101857.09;1760249;81;20903;-85
2022/10/28 01:49:18;;;;;;;2.92;2.47;;;;;;;11.26;85.84;101853.16;1760327;81;20872;-84
2022/10/28 01:51:53;;;;;;;3.08;2.15;;;;;;;11.27;85.79;101858.81;1760436;81;20932;-84
2022/10/28 01:54:22;;;;;;;3.00;2.30;;;;;;;11.29;85.75;101854.79;1760462;81;21908;-84
2022/10/28 01:56:49;;;;;;;4.85;2.22;;;;;;;11.29;85.80;101854.32;1760121;81;21018;-84
2022/10/28 01:59:20;;;;;;;2.40;2.12;;;;;;;11.31;85.70;101857.73;1760165;81;20994;-84
2022/10/28 02:01:47;;;;;;;6.55;2.65;;;;;;;11.30;85.72;101859.98;1760302;81;20916;-83
2022/10/28 02:04:14;;;;;;;4.33;2.47;;;;;;;11.31;85.86;101860.36;1760273;81;21452;-84
2022/10/28 02:06:42;;;;;;;5.15;2.50;;;;;;;11.34;85.89;101856.78;1760259;81;21215;-84
2022/10/28 02:09:26;;;;;;;4.37;2.87;;;;;;;11.36;85.70;101858.85;1760096;81;20966;-84
2022/10/28 02:12:10;;;;;;;7.40;2.60;;;;;;;11.33;85.55;101861.63;1758948;81;20936;-84
2022/10/28 02:14:48;;;;;;;5.17;2.30;;;;;;;11.30;85.77;101862.61;1760884;81;20868;-84
2022/10/28 02:17:27;;;;;;;6.42;2.60;;;;;;;11.29;85.70;101870.55;1760300;81;20935;-84
2022/10/28 02:20:16;;;;;;;4.03;2.77;;;;;;;11.27;86.06;101868.00;1760326;81;21206;-84
2022/10/28 02:22:56;;;;;;;4.15;2.85;;;;;;;11.29;86.16;101873.17;1760476;81;20931;-85
2022/10/28 02:25:43;;;;;;;3.80;2.83;;;;;;;11.31;86.18;101872.65;1735161;81;21504;-84
2022/10/28 02:28:13;;;;;;;5.03;2.92;;;;;;;11.32;86.33;101871.28;1762382;80;20911;-84
2022/10/28 02:30:58;;;;;;;4.97;3.27;;;;;;;11.34;86.23;101876.48;1766617;81;20978;-85
2022/10/28 02:33:30;;;;;;;4.75;3.12;;;;;;;11.35;86.17;101874.23;1730231;82;21190;-85
2022/10/28 02:36:07;;;;;;;4.12;3.12;;;;;;;11.35;86.07;101868.98;1730118;81;20924;-83
2022/10/28 02:38:45;;;;;;;5.03;3.52;;;;;;;11.33;86.01;101873.44;1730226;81;20935;-84
2022/10/28 02:41:24;;;;;;;4.45;3.08;;;;;;;11.33;86.13;101880.00;1730077;81;20939;-84
2022/10/28 02:43:55;;;;;;;3.60;3.27;;;;;;;11.34;86.27;101879.10;1730266;83;20952;-85
2022/10/28 02:46:22;;;;;;;4.17;2.90;;;;;;;11.34;86.08;101882.58;1729878;81;21144;-84
2022/10/28 02:48:52;;;;;;;4.37;3.10;;;;;;;11.31;86.10;101881.37;1730288;82;20876;-85
2022/10/28 02:51:26;;;;;;;5.62;3.45;;;;;;;11.31;86.24;101881.37;1730224;81;20987;-82
2022/10/28 02:54:08;;;;;;;;;;;;;;;11.33;86.37;101884.79;1732726;81;21501;-85
2022/10/28 02:56:39;;;;;;;6.08;3.62;;;;;;;11.35;86.43;101881.64;1750779;82;20374;-85
2022/10/28 02:59:10;;;;;;;7.28;4.50;;;;;;;11.35;86.28;101880.33;1729713;81;21372;-85
2022/10/28 03:01:38;;;;;;;6.65;3.98;;;;;;;11.35;86.40;101883.42;1730386;82;20935;-83
2022/10/28 03:04:05;;;;;;;6.25;2.98;;;;;;;11.38;86.45;101884.59;1730295;83;21481;-83
2022/10/28 03:06:33;;;;;;;5.60;3.02;;;;;;;11.36;86.24;101885.98;1730409;81;20964;-83
2022/10/28 03:09:00;;;;;;;5.70;3.83;;;;;;;11.34;86.39;101892.23;1730293;81;20948;-82
2022/10/28 03:11:26;;;;;;;4.37;2.90;;;;;;;11.34;86.37;101892.23;1730179;81;21096;-82
2022/10/28 03:13:53;;;;;;;5.67;3.25;;;;;;;11.32;86.33;101885.72;1730036;82;20948;-84
2022/10/28 03:16:20;;;;;;;4.03;3.62;;;;;;;11.30;86.48;101895.91;1730210;81;21026;-84
2022/10/28 03:18:47;;;;;;;7.37;3.42;;;;;;;11.30;86.71;101890.19;1730265;81;20888;-85
2022/10/28 03:21:15;;;;;;;4.42;3.10;;;;;;;11.30;86.72;101887.56;1730702;81;20924;-83
2022/10/28 03:23:41;;;;;;;7.83;3.65;;;;;;;11.31;86.91;101888.41;1730487;81;21135;-85
2022/10/28 03:26:08;;;;;;;4.90;2.92;;;;;;;11.34;87.15;101886.98;1730192;81;20864;-85
2022/10/28 03:28:35;;;;;;;5.85;3.58;;;;;;;11.36;87.21;101887.73;1730106;81;20935;-85
2022/10/28 03:31:01;;;;;;;7.95;3.60;;;;;;;11.39;87.13;101886.31;1730225;83;20908;-83
2022/10/28 03:33:30;;;;;;;5.42;3.80;;;;;;;11.37;87.04;101892.94;1730336;81;20948;-85
2022/10/28 03:35:58;;;;;;;6.50;3.27;;;;;;;11.34;87.08;101897.48;1731428;83;20821;-84
2022/10/28 03:38:24;;;;;;;7.58;3.60;;;;;;;11.33;87.38;101892.67;1733023;81;20983;-84
2022/10/28 03:40:51;;;;;;;4.08;2.90;;;;;;;11.26;87.46;101876.78;1733115;81;21027;-84
2022/10/28 03:43:18;;;;;;;6.78;3.05;;;;;;;11.31;87.33;101893.19;1731864;81;21047;-83
2022/10/28 03:45:44;;;;;;;8.08;3.37;;;;;;;11.27;87.44;101895.58;1732981;81;20971;-83
2022/10/28 03:48:11;;;;;;;4.40;3.35;;;;;;;11.26;87.64;101893.01;1730343;81;21260;-83
2022/10/28 03:50:37;;;;;;;5.40;3.52;;;;;;;11.26;87.91;101894.33;1730490;81;20999;-83
2022/10/28 03:53:06;;;;;;;4.40;2.90;;;;;;;11.25;87.78;101896.10;1730319;82;21481;-83
2022/10/28 03:55:32;;;;;;;4.45;3.50;;;;;;;11.24;87.77;101891.75;1730561;81;21429;-84
2022/10/28 03:58:01;;;;;;;4.35;3.12;;;;;;;11.23;87.89;101883.50;1730702;81;20932;-83
2022/10/28 04:00:28;;;;;;;5.22;3.87;;;;;;;11.24;87.97;101885.66;1730612;81;21267;-84
2022/10/28 04:02:55;;;;;;;4.12;2.67;;;;;;;11.24;88.14;101889.12;1730413;81;20900;-84
2022/10/28 04:05:23;;;;;;;4.33;3.30;;;;;;;11.29;88.09;101890.23;1730475;81;21011;-84
2022/10/28 04:07:51;;;;;;;3.58;2.72;;;;;;;11.30;87.87;101901.16;1730797;81;21018;-84
2022/10/28 04:10:19;;;;;;;6.60;3.22;;;;;;;11.26;87.72;101897.80;1730659;83;21194;-84
2022/10/28 04:12:46;;;;;;;6.00;3.05;;;;;;;11.27;87.95;101896.89;1758799;81;21888;-83
2022/10/28 04:15:13;;;;;;;6.15;3.45;;;;;;;11.28;87.99;101900.37;1758726;81;21461;-85
2022/10/28 04:17:40;;;;;;;4.97;3.22;;;;;;;11.31;87.93;101898.91;1730215;81;20959;-84
2022/10/28 04:20:08;;;;;;;6.10;3.55;;;;;;;11.34;87.79;101897.48;1730287;81;20972;-84
2022/10/28 04:22:35;;;;;;;2.87;2.67;;;;;;;11.35;87.65;101899.17;1730270;81;20994;-85
2022/10/28 04:25:01;;;;;;;3.50;2.45;;;;;;;11.35;87.51;101905.75;1730201;81;21143;-85
2022/10/28 04:27:27;;;;;;;3.77;3.00;;;;;;;11.36;87.43;101904.81;1730116;83;20921;-84
2022/10/28 04:29:54;;;;;;;4.35;2.85;;;;;;;11.34;87.28;101910.16;1726238;81;21489;-84
2022/10/28 04:32:21;;;;;;;4.15;3.10;;;;;;;11.34;87.32;101906.68;1726256;83;20936;-85
2022/10/28 04:34:48;;;;;;;7.42;3.12;;;;;;;11.33;87.29;101912.83;1726537;82;20900;-84
2022/10/28 04:37:15;;;;;;;3.62;2.60;;;;;;;11.34;87.44;101919.34;1725841;82;21154;-82
2022/10/28 04:39:41;;;;;;;4.62;2.95;;;;;;;11.36;87.33;101917.95;1725747;83;21480;-81
2022/10/28 04:42:08;;;;;;;3.60;2.42;;;;;;;11.37;87.23;101918.36;1725798;82;20935;-84
2022/10/28 04:44:35;;;;;;;2.87;2.67;;;;;;;11.36;87.20;101925.82;1725633;82;20932;-84
2022/10/28 04:47:01;;;;;;;6.15;2.83;;;;;;;11.39;87.35;101927.88;1725764;82;21496;-85
2022/10/28 04:49:28;;;;;;;5.28;2.80;;;;;;;11.44;87.08;101928.98;1725800;82;21160;-84
2022/10/28 04:51:56;;;;;;;5.58;2.80;;;;;;;11.47;87.00;101928.87;1725778;82;21093;-86
2022/10/28 04:54:23;;;;;;;2.72;2.50;;;;;;;11.48;86.57;101926.62;1725902;82;21487;-85
2022/10/28 04:56:50;;;;;;;2.95;2.60;;;;;;;11.48;86.55;101927.94;1743588;82;20943;-85
2022/10/28 04:59:16;;;;;;;3.65;2.60;;;;;;;11.47;86.23;101935.88;1726181;82;20928;-85
2022/10/28 05:01:43;;;;;;;4.53;2.75;;;;;;;11.44;86.32;101938.18;1725876;82;21421;-85
2022/10/28 05:04:10;;;;;;;4.42;3.33;;;;;;;11.43;86.48;101940.42;1726229;82;20968;-84
2022/10/28 05:06:38;;;;;;;3.90;2.37;;;;;;;11.41;86.59;101940.95;1743820;82;20991;-83
2022/10/28 05:09:04;;;;;;;11.05;3.98;;;;;;;11.43;86.68;101950.05;1725786;82;21011;-84
2022/10/28 05:11:31;;;;;;;5.55;3.02;;;;;;;11.42;86.76;101942.64;1725930;82;20947;-85
2022/10/28 05:13:58;;;;;;;3.22;2.90;;;;;;;11.44;86.76;101946.53;1726008;82;21426;-83
2022/10/28 05:16:25;;;;;;;3.40;2.98;;;;;;;11.43;86.58;101946.12;1726027;82;21409;-84
2022/10/28 05:18:52;;;;;;;6.37;2.52;;;;;;;11.40;86.68;101949.30;1726028;82;21511;-85
2022/10/28 05:21:18;;;;;;;4.28;2.90;;;;;;;11.41;86.70;101948.83;1725917;82;20856;-85
2022/10/28 05:23:46;;;;;;;2.33;2.17;;;;;;;11.40;86.80;101949.73;1725898;82;20868;-85
2022/10/28 05:26:13;;;;;;;5.50;2.77;;;;;;;11.40;86.75;101954.98;1725920;82;21228;-84
2022/10/28 05:28:41;;;;;;;4.03;2.95;;;;;;;11.41;86.92;101954.08;1727323;82;21054;-84
2022/10/28 05:31:09;;;;;;;5.92;2.50;;;;;;;11.41;86.82;101954.08;1730472;81;20909;-83
2022/10/28 05:33:37;;;;;;;3.52;2.72;;;;;;;11.43;86.80;101951.37;1730299;81;21425;-85
2022/10/28 05:36:04;;;;;;;3.42;2.75;;;;;;;11.46;86.84;101948.16;1730607;81;20995;-84
2022/10/28 05:38:30;;;;;;;4.62;2.75;;;;;;;11.50;86.97;101952.37;1730460;81;21232;-84
2022/10/28 05:40:57;;;;;;;3.50;2.45;;;;;;;11.54;86.78;101950.02;1730424;81;20868;-84
2022/10/28 05:43:23;;;;;;;3.17;2.40;;;;;;;11.59;86.65;101955.92;1730687;81;20920;-85
2022/10/28 05:45:55;;;;;;;4.83;2.90;;;;;;;11.61;86.29;101962.43;1730466;81;21023;-82
2022/10/28 05:48:22;;;;;;;6.53;3.17;;;;;;;11.65;86.36;101959.20;1730447;81;20920;-84
2022/10/28 05:50:48;;;;;;;3.70;2.45;;;;;;;11.70;86.16;101958.09;1730375;81;21228;-85
2022/10/28 05:53:16;;;;;;;4.45;3.12;;;;;;;11.73;85.93;101954.00;1730305;81;22095;-84
2022/10/28 05:55:44;;;;;;;6.30;2.58;;;;;;;11.81;85.77;101960.26;1730922;81;20977;-84
2022/10/28 05:58:12;;;;;;;4.37;2.70;;;;;;;11.87;85.39;101959.12;1730671;83;20963;-84
2022/10/28 06:00:38;;;;;;;5.33;2.45;;;;;;;11.92;85.36;101958.05;1730698;83;20900;-82
2022/10/28 06:03:09;;;;;;;5.80;2.83;;;;;;;12.00;85.36;101963.80;1751538;82;22131;-83
2022/10/28 06:05:42;;;;;;;3.33;2.95;;;;;;;12.07;84.93;101959.59;1730940;81;20904;-84
2022/10/28 06:08:11;;;;;;;4.60;2.83;;;;;;;12.11;84.58;101965.11;1730687;81;20900;-85
2022/10/28 06:10:38;;;;;;;5.15;2.47;;;;;;;12.16;84.59;101969.25;1731005;81;20964;-82
2022/10/28 06:13:05;;;;;;;4.03;2.47;;;;;;;12.19;84.05;101967.78;1731268;81;20999;-81
2022/10/28 06:15:32;;;;;;;2.92;2.60;;;;;;;12.21;83.74;101976.93;1730673;81;21233;-85
2022/10/28 06:17:58;;;;;;;9.43;4.42;;;;;;;12.19;83.24;101971.73;1730459;81;20891;-85
2022/10/28 06:20:26;;;;;;;2.52;2.33;;;;;;;12.14;82.98;101975.47;1730123;82;20908;-83
2022/10/28 06:22:54;;;;;;;5.47;2.72;;;;;;;12.11;83.09;101975.16;1699573;83;20956;-86
2022/10/28 06:25:21;;;;;;;3.45;2.40;;;;;;;12.14;83.00;101975.03;1731029;81;20986;-85
2022/10/28 06:27:57;;;;;;;14.28;11.12;;;;;;;12.16;82.87;101983.72;1730573;83;21328;-84
2022/10/28 06:30:25;;;;;;;4.58;2.92;;;;;;;12.17;82.85;101985.41;1744516;81;20897;-85
2022/10/28 06:32:52;;;;;;;4.90;2.60;;;;;;;12.17;82.76;101986.72;1742990;82;20960;-86
2022/10/28 06:35:18;;;;;;;4.67;3.00;;;;;;;12.19;82.89;101988.82;1743441;82;20944;-84
2022/10/28 06:37:45;;;;;;;3.67;2.98;;;;;;;12.23;82.98;101989.08;1743181;82;20995;-84
2022/10/28 06:40:12;;;;;;;4.65;2.72;;;;;;;12.24;82.73;101987.30;1744647;82;21243;-84
2022/10/28 06:42:39;;;;;;;6.47;4.72;;;;;;;12.28;82.49;101988.88;1743768;82;20861;-84
2022/10/28 06:45:07;;;;;;;2.95;2.65;;;;;;;12.31;82.42;101986.56;1743956;82;20861;-83
2022/10/28 06:47:33;;;;;;;3.33;2.62;;;;;;;12.34;82.19;101987.29;1746025;81;20826;-84
2022/10/28 06:50:00;;;;;;;6.17;3.05;;;;;;;12.34;82.04;101989.92;1745947;80;21370;-85
2022/10/28 06:52:26;;;;;;;3.77;2.70;;;;;;;12.32;81.84;101981.71;1745982;82;21196;-86
2022/10/28 06:54:53;;;;;;;3.40;2.52;;;;;;;12.33;82.05;101980.77;1745261;82;20976;-84
2022/10/28 06:57:19;;;;;;;4.50;2.77;;;;;;;12.39;82.02;101985.29;1743334;82;20859;-82
2022/10/28 06:59:46;;;;;;;4.30;2.58;;;;;;;12.44;82.20;101985.08;1743461;81;20948;-82
2022/10/28 07:02:14;;;;;;;5.03;2.27;;;;;;;12.55;82.34;101987.22;1743489;82;20889;-83
2022/10/28 07:04:41;;;;;;;4.87;3.27;;;;;;;12.70;82.49;101989.14;1743554;82;22105;-84
2022/10/28 07:07:08;;;;;;;4.35;3.12;;;;;;;12.89;81.74;101984.31;1743348;82;20956;-85
2022/10/28 07:09:38;;;;;;;3.37;2.37;;;;;;;12.98;80.72;101985.18;1743085;82;20897;-84
2022/10/28 07:12:08;;;;;;;3.95;2.40;;;;;;;13.05;80.40;101976.08;1743044;82;21375;-84
2022/10/28 07:14:36;;;;;;;2.77;2.30;;;;;;;13.15;80.25;101978.64;1742998;82;21061;-82
2022/10/28 07:17:02;;;;;;;3.00;2.33;;;;;;;13.24;79.73;101977.33;1742964;82;21770;-82
2022/10/28 07:19:30;;;;;;;4.25;2.67;;;;;;;13.25;79.05;101979.91;1743169;82;21509;-85
2022/10/28 07:21:57;;;;;;;5.47;2.08;;;;;;;13.26;78.64;101983.38;1743045;82;20920;-84
2022/10/28 07:24:23;;;;;;;3.10;2.83;;;;;;;13.23;78.64;101980.91;1743116;82;20948;-83
2022/10/28 07:26:50;;;;;;;3.65;2.50;;;;;;;13.19;78.40;101981.98;1743136;82;21361;-83
2022/10/28 07:29:16;;;;;;;6.65;3.08;;;;;;;13.15;78.49;101987.86;1742728;81;21706;-82
2022/10/28 07:31:44;;;;;;;4.30;2.60;;;;;;;13.12;78.59;101983.22;1742814;82;20987;-83
2022/10/28 07:34:11;;;;;;;2.95;2.70;;;;;;;13.09;78.65;101979.40;1743214;82;20956;-83
2022/10/28 07:36:39;;;;;;;2.47;2.17;;;;;;;13.09;78.71;101984.20;1743469;82;20912;-83
2022/10/28 07:39:05;;;;;;;6.17;2.52;;;;;;;13.09;78.77;101980.72;1742899;82;20893;-85
2022/10/28 07:41:33;;;;;;;3.62;2.27;;;;;;;13.11;79.19;101984.12;1743047;82;21124;-84
2022/10/28 07:43:59;;;;;;;2.87;2.02;;;;;;;13.17;79.50;101983.37;1743017;82;20873;-82
2022/10/28 07:46:26;;;;;;;2.87;2.30;;;;;;;13.25;78.99;101985.17;1742935;82;20905;-82
2022/10/28 07:48:53;;;;;;;11.68;7.42;;;;;;;13.30;78.82;101985.45;1743418;82;20937;-82
2022/10/28 07:51:19;;;;;;;8.23;7.28;;;;;;;13.33;78.38;101997.98;1743178;82;21362;-83
2022/10/28 07:53:47;;;;;;;5.37;2.67;;;;;;;13.32;77.95;101989.70;1743682;82;21121;-84
2022/10/28 07:56:15;;;;;;;5.15;2.77;;;;;;;13.30;77.80;101988.08;1743699;82;21365;-84
2022/10/28 07:58:43;;;;;;;3.35;2.10;;;;;;;13.30;77.74;101989.40;1743868;82;20968;-85
2022/10/28 08:01:12;;;;;;;3.00;1.85;;;;;;;13.30;77.69;101991.56;1743475;82;21093;-85
2022/10/28 08:03:39;;;;;;;4.62;3.10;;;;;;;13.31;77.75;101991.94;1743486;82;20935;-84
2022/10/28 08:06:18;;;;;;;3.33;2.42;;;;;;;13.35;77.93;101988.22;1743026;82;21989;-84
2022/10/28 08:08:47;;;;;;;4.60;2.27;;;;;;;13.43;78.12;101990.02;1743422;82;20881;-84
2022/10/28 08:11:18;;;;;;;3.00;2.25;;;;;;;13.52;77.93;101991.78;1743671;82;20960;-84
2022/10/28 08:13:46;;;;;;;2.67;2.25;;;;;;;13.57;77.64;101991.95;1743043;82;21427;-84
2022/10/28 08:16:14;;;;;;;3.58;2.37;;;;;;;13.65;77.22;101992.87;1743383;82;20945;-84
2022/10/28 08:18:40;;;;;;;3.58;2.47;;;;;;;13.69;77.31;101991.79;1743552;82;21209;-85
2022/10/28 08:21:09;;;;;;;4.53;3.50;;;;;;;13.72;76.83;101994.73;1743560;82;20932;-84
2022/10/28 08:23:37;;;;;;;9.05;4.08;;;;;;;13.71;76.64;101996.99;1743446;82;20936;-81
2022/10/28 08:26:04;;;;;;;7.83;2.55;;;;;;;13.76;76.61;101991.89;1742833;82;20936;-85
2022/10/28 08:28:30;;;;;;;6.72;2.17;;;;;;;13.85;76.39;101993.17;1743481;82;21027;-84
2022/10/28 08:31:03;;;;;;;4.53;2.50;;;;;;;13.89;76.56;101995.59;1749309;81;21433;-84
2022/10/28 08:33:32;;;;;;;3.25;2.17;;;;;;;13.94;76.09;101994.03;1730688;81;20965;-84
2022/10/28 08:36:03;;;;;;;2.27;2.02;;;;;;;13.97;76.02;101993.86;1730898;81;20991;-84
2022/10/28 08:38:29;;;;;;;2.30;2.10;;;;;;;13.99;75.75;101990.68;1730756;81;20900;-83
2022/10/28 08:41:30;;;;;;;2.65;2.45;;;;;;;14.00;75.25;101990.20;1730403;83;20941;-84
2022/10/28 08:44:29;;;;;;;4.03;2.45;;;;;;;13.98;75.27;101989.43;1730600;81;21429;-83
2022/10/28 08:50:17;;;;;;;3.17;2.12;;;;;;;13.88;75.38;101989.07;1882291;76;23312;-84
2022/10/28 08:52:55;;;;;;;4.33;2.08;;;;;;;13.79;75.44;101994.35;1822183;78;21057;-83
2022/10/28 08:55:34;;;;;;;6.80;5.47;;;;;;;13.81;75.31;101992.48;1820892;78;21122;-83
2022/10/28 08:58:23;;;;;;;4.92;2.50;;;;;;;13.79;75.10;102000.09;1820901;78;21419;-83
2022/10/28 09:00:55;;;;;;;5.85;3.12;;;;;;;13.74;75.21;102004.73;1821678;78;20946;-84
2022/10/28 09:03:25;;;;;;;4.75;3.47;;;;;;;13.76;75.35;102001.11;1821418;77;20907;-84
2022/10/28 09:06:00;;;;;;;15.88;13.98;;;;;;;13.80;75.24;101999.16;1822667;77;20836;-85
2022/10/28 09:08:30;;;;;;;4.33;2.92;;;;;;;13.84;75.04;102005.98;1824365;77;21203;-84
2022/10/28 09:11:19;;;;;;;4.97;3.02;;;;;;;13.86;74.90;102004.97;1823846;76;20927;-83
2022/10/28 09:13:54;;;;;;;3.10;2.37;;;;;;;13.86;74.48;101997.52;1819939;77;20995;-83
2022/10/28 09:16:41;;;;;;;2.15;1.90;;;;;;;13.83;74.39;102001.17;1824042;76;20942;-82
2022/10/28 09:19:46;;;;;;;4.47;2.27;;;;;;;13.86;74.56;101998.38;1823631;76;20875;-84
2022/10/28 09:22:33;;;;;;;4.53;2.10;;;;;;;13.89;74.75;101995.59;1823688;76;21107;-83
2022/10/28 09:25:02;;;;;;;2.98;2.70;;;;;;;13.97;74.43;101991.70;1823738;77;20978;-82
2022/10/28 09:28:01;;;;;;;3.98;2.17;;;;;;;14.06;74.36;101995.17;1823315;77;20927;-82
2022/10/28 09:30:51;;;;;;;4.30;2.22;;;;;;;14.15;73.98;101989.87;1824111;76;20879;-84
2022/10/28 09:33:38;;;;;;;3.90;2.42;;;;;;;14.23;73.90;101987.22;1821557;78;20894;-85
2022/10/28 09:36:07;;;;;;;3.87;2.47;;;;;;;14.26;73.08;101989.68;1821666;78;21172;-83
2022/10/28 09:38:36;;;;;;;2.50;2.30;;;;;;;14.23;72.72;101990.33;1820904;77;21408;-84
2022/10/28 09:41:20;;;;;;;2.58;1.87;;;;;;;14.22;72.51;101992.09;1821430;77;21478;-85
2022/10/28 09:43:55;;;;;;;4.37;1.85;;;;;;;14.22;72.22;101990.77;1822162;78;20863;-84
2022/10/28 09:46:23;;;;;;;2.80;2.17;;;;;;;14.23;72.45;101989.02;1821314;78;20922;-84
2022/10/28 09:48:53;;;;;;;2.45;2.10;;;;;;;14.27;72.72;101993.16;1787791;79;22075;-84
2022/10/28 09:51:57;;;;;;;2.27;2.08;;;;;;;14.31;72.51;101990.75;1819591;77;20911;-85
2022/10/28 09:54:33;;;;;;;8.00;4.80;;;;;;;14.32;71.96;101996.43;1820529;77;20840;-83
2022/10/28 09:57:01;;;;;;;10.55;5.90;;;;;;;14.34;71.95;101995.87;1821575;77;21004;-82
2022/10/28 09:59:28;;;;;;;2.90;2.67;;;;;;;14.39;71.87;101989.87;1820815;79;20868;-83
2022/10/28 10:01:54;;;;;;;7.00;5.22;;;;;;;14.39;71.87;101989.87;1820906;77;21101;-83
2022/10/28 10:04:25;;;;;;;3.85;2.85;;;;;;;14.45;72.11;101989.55;1819027;77;20923;-83
2022/10/28 10:07:10;;;;;;;9.33;4.17;;;;;;;14.48;71.83;101996.45;1813414;79;21455;-83
2022/10/28 10:09:38;;;;;;;2.92;2.02;;;;;;;14.42;71.11;101994.98;1817913;77;20891;-84
2022/10/28 10:12:09;;;;;;;3.62;2.02;;;;;;;14.42;71.11;101994.98;1818028;78;20895;-85
2022/10/28 10:14:46;;;;;;;2.85;1.60;;;;;;;14.41;70.52;101997.72;1817851;79;21369;-84
2022/10/28 10:17:20;;;;;;;2.25;1.47;;;;;;;14.39;70.38;101991.67;1817990;79;20978;-84
2022/10/28 10:20:08;;;;;;;4.03;2.80;;;;;;;14.36;69.93;101984.78;1791341;79;21376;-84
2022/10/28 10:22:42;;;;;;;2.90;2.52;;;;;;;14.36;69.93;101984.78;1817981;79;21412;-84
2022/10/28 10:25:22;;;;;;;13.28;9.55;;;;;;;14.39;69.92;101986.39;1818243;79;20911;-84
2022/10/28 10:28:04;;;;;;;37.13;26.90;;;;;;;14.40;69.50;101998.64;1816813;79;21820;-85
2022/10/28 10:30:41;;;;;;;5.90;3.58;;;;;;;14.41;68.76;101988.48;1817996;79;20986;-86
2022/10/28 10:33:30;;;;;;;5.12;2.40;;;;;;;14.41;68.67;101984.53;1815596;77;20926;-82
2022/10/28 10:36:11;;;;;;;3.58;2.70;;;;;;;14.43;68.55;101994.53;1821170;77;20812;-84
2022/10/28 10:38:38;;;;;;;2.22;1.77;;;;;;;14.43;68.89;101995.38;1819791;77;20840;-84
2022/10/28 10:41:04;;;;;;;4.40;2.65;;;;;;;14.40;69.26;101992.05;1793770;78;21215;-83
2022/10/28 10:43:33;;;;;;;4.55;4.00;;;;;;;14.36;69.78;101995.34;1820664;77;21002;-83
2022/10/28 10:46:15;;;;;;;2.25;1.98;;;;;;;14.34;70.10;101991.92;1820920;77;20965;-83
2022/10/28 10:48:41;;;;;;;2.60;2.40;;;;;;;14.34;70.04;101985.33;1820985;77;20993;-85
2022/10/28 10:51:25;;;;;;;3.62;3.08;;;;;;;14.37;70.07;101984.30;1822724;76;20876;-84
2022/10/28 10:53:56;;;;;;;2.58;1.90;;;;;;;14.38;70.18;101980.23;1823057;76;21205;-83
2022/10/28 10:56:27;;;;;;;4.12;2.12;;;;;;;14.44;70.08;101985.67;1823064;76;20765;-83
2022/10/28 10:58:56;;;;;;;2.17;2.00;;;;;;;14.43;70.28;101976.91;1823105;77;20840;-82
2022/10/28 11:01:28;;;;;;;3.58;3.00;;;;;;;14.43;70.28;101984.82;1823243;76;20950;-84
2022/10/28 11:04:02;;;;;;;6.50;3.12;;;;;;;14.41;70.54;101981.89;1790001;78;20922;-84
2022/10/28 11:06:35;;;;;;;5.53;2.45;;;;;;;14.42;70.57;101982.26;1819997;78;21279;-84
2022/10/28 11:09:08;;;;;;;2.37;1.50;;;;;;;14.45;70.38;101982.95;1820056;78;20941;-83
2022/10/28 11:11:38;;;;;;;2.30;1.75;;;;;;;14.49;70.34;101987.11;1818274;78;20954;-84
2022/10/28 11:14:13;;;;;;;5.92;2.20;;;;;;;14.53;70.16;101986.48;1820543;78;20931;-84
2022/10/28 11:16:52;;;;;;;5.17;1.90;;;;;;;14.56;70.21;101984.17;1813617;78;20958;-85
2022/10/28 11:19:29;;;;;;;2.83;2.40;;;;;;;14.56;69.69;101986.81;1819861;78;21341;-84
2022/10/28 11:22:18;;;;;;;2.27;1.90;;;;;;;14.56;69.69;101986.81;1819810;78;20883;-84
2022/10/28 11:25:09;;;;;;;6.92;2.92;;;;;;;14.50;69.22;101991.47;1820003;78;20906;-84
2022/10/28 11:27:47;;;;;;;6.83;5.08;;;;;;;14.44;69.63;101992.27;1819799;77;20902;-84
2022/10/28 11:30:20;;;;;;;3.30;3.00;;;;;;;14.38;69.55;101985.99;1815882;78;21025;-85
2022/10/28 11:33:09;;;;;;;3.75;3.37;;;;;;;14.34;69.42;101986.64;1819737;78;21113;-85
2022/10/28 11:35:47;;;;;;;2.33;1.60;;;;;;;14.30;69.57;101987.27;1811558;77;20926;-86
2022/10/28 11:38:54;;;;;;;2.27;1.62;;;;;;;14.29;69.66;101989.98;1811357;78;20934;-85
2022/10/28 11:41:32;;;;;;;4.28;2.72;;;;;;;14.28;69.83;101984.33;1820297;77;21036;-85
2022/10/28 11:43:59;;;;;;;2.35;2.02;;;;;;;14.31;70.19;101980.20;1820038;78;20851;-85
2022/10/28 11:46:53;;;;;;;3.47;2.72;;;;;;;14.33;70.48;101978.33;1820121;78;21762;-84
2022/10/28 11:50:01;;;;;;;2.83;2.25;;;;;;;14.36;70.29;101975.55;1819779;77;21842;-85
2022/10/28 11:52:45;;;;;;;3.27;2.05;;;;;;;14.38;69.90;101979.39;1819487;78;20933;-84